Time;durP1;ratioP1;P1;durP2;ratioP2;P2;SDS_P1;SDS_P2;PMS_P1;PMS_P2;Temp;Humidity;BMP_temperature;BMP_pressure;BME280_temperature;BME280_humidity;BME280_pressure;Samples;Min_cycle;Max_cycle;Signal;HPM_P1;HPM_P2
2021/06/20 00:01:01;;;;;;;;;;;23.20;99.90;;;;;;5046541;28;20291;-67
2021/06/20 00:03:50;;;;;;;;;;;23.30;99.90;;;;;;5050235;28;19932;-67
2021/06/20 00:06:39;;;;;;;;;;;23.40;99.90;;;;;;5049061;28;19987;-68
2021/06/20 00:09:29;;;;;;;;;;;23.40;99.90;;;;;;5050028;28;19979;-67
2021/06/20 00:12:18;;;;;;;;;;;23.40;99.90;;;;;;5049455;28;19933;-67
2021/06/20 00:15:10;;;;;;;;;;;23.50;99.90;;;;;;5036890;28;19935;-67
2021/06/20 00:17:58;;;;;;;;;;;23.70;99.90;;;;;;5047022;28;20353;-67
2021/06/20 00:20:48;;;;;;;;;;;23.70;99.90;;;;;;5051091;28;20361;-67
2021/06/20 00:23:37;;;;;;;;;;;23.60;99.90;;;;;;5054396;28;19928;-68
2021/06/20 00:26:27;;;;;;;;;;;23.50;99.90;;;;;;5050355;28;20428;-67
2021/06/20 00:29:16;;;;;;;;;;;23.50;99.90;;;;;;5051285;28;19947;-67
2021/06/20 00:32:05;;;;;;;;;;;23.50;99.90;;;;;;5026903;28;19924;-67
2021/06/20 00:34:54;;;;;;;;;;;23.30;99.90;;;;;;5052949;28;19932;-67
2021/06/20 00:37:43;;;;;;;;;;;23.30;99.90;;;;;;5049732;28;19961;-66
2021/06/20 00:40:32;;;;;;;;;;;23.10;99.90;;;;;;5052515;28;19924;-67
2021/06/20 00:43:22;;;;;;;;;;;23.00;99.90;;;;;;5052780;28;19925;-67
2021/06/20 00:46:35;;;;;;;;;;;22.90;99.90;;;;;;5039386;28;20008;-68
2021/06/20 00:49:24;;;;;;;;;;;22.80;99.90;;;;;;5033096;28;19929;-66
2021/06/20 00:52:14;;;;;;;;;;;22.80;99.90;;;;;;5032731;28;19925;-67
2021/06/20 00:55:04;;;;;;;;;;;22.80;99.90;;;;;;5052618;28;19925;-67
2021/06/20 00:57:52;;;;;;;;;;;22.70;99.90;;;;;;5042730;28;19929;-68
2021/06/20 01:00:43;;;;;;;;;;;22.60;99.90;;;;;;5045864;28;19924;-67
2021/06/20 01:03:32;;;;;;;;;;;22.70;99.90;;;;;;5036476;28;19932;-69
2021/06/20 01:06:20;;;;;;;;;;;22.90;99.90;;;;;;5051718;28;20392;-67
2021/06/20 01:09:09;;;;;;;;;;;23.00;99.90;;;;;;5035594;28;19960;-67
2021/06/20 01:11:58;;;;;;;;;;;23.00;99.90;;;;;;5062356;28;19925;-68
2021/06/20 01:14:48;;;;;;;;;;;23.00;99.90;;;;;;5056025;28;19925;-67
2021/06/20 01:17:38;;;;;;;;;;;22.90;99.90;;;;;;5047624;28;20015;-67
2021/06/20 01:20:27;;;;;;;;;;;22.80;99.90;;;;;;5052753;28;20349;-67
2021/06/20 01:23:17;;;;;;;;;;;22.70;99.90;;;;;;5049934;28;19932;-68
2021/06/20 01:26:05;;;;;;;;;;;22.70;99.90;;;;;;5034505;28;20382;-67
2021/06/20 01:29:02;;;;;;;;;;;22.60;99.90;;;;;;5036401;28;20352;-67
2021/06/20 01:31:52;;;;;;;;;;;22.50;99.90;;;;;;5044167;28;19925;-67
2021/06/20 01:34:41;;;;;;;;;;;22.50;99.90;;;;;;5037831;28;20243;-67
2021/06/20 01:37:30;;;;;;;;;;;22.50;99.90;;;;;;5033725;28;19925;-67
2021/06/20 01:40:20;;;;;;;;;;;22.40;99.90;;;;;;5055011;28;19959;-68
2021/06/20 01:43:13;;;;;;;;;;;22.30;99.90;;;;;;5052973;28;20018;-67
2021/06/20 01:46:02;;;;;;;;;;;22.40;99.90;;;;;;5045436;28;19925;-67
2021/06/20 01:48:51;;;;;;;;;;;22.40;99.90;;;;;;5050329;28;20376;-68
2021/06/20 01:51:42;;;;;;;;;;;22.40;99.90;;;;;;5051006;28;20448;-67
2021/06/20 01:54:34;;;;;;;;;;;22.40;99.90;;;;;;5055912;28;19932;-67
2021/06/20 01:57:25;;;;;;;;;;;22.40;99.90;;;;;;5050193;28;20388;-67
2021/06/20 02:00:16;;;;;;;;;;;22.30;99.90;;;;;;5053518;28;19924;-67
2021/06/20 02:03:09;;;;;;;;;;;22.30;99.90;;;;;;5039255;28;19929;-70
2021/06/20 02:05:58;;;;;;;;;;;22.30;99.90;;;;;;5053752;28;19925;-69
2021/06/20 02:08:47;;;;;;;;;;;22.30;99.90;;;;;;5073698;28;19925;-67
2021/06/20 02:11:36;;;;;;;;;;;22.20;99.90;;;;;;5054742;28;19925;-67
2021/06/20 02:14:27;;;;;;;;;;;22.20;99.90;;;;;;5053736;28;20059;-66
2021/06/20 02:17:21;;;;;;;;;;;22.20;99.90;;;;;;5049708;28;19925;-68
2021/06/20 02:20:11;;;;;;;;;;;22.10;99.90;;;;;;5049584;28;20366;-67
2021/06/20 02:23:00;;;;;;;;;;;22.10;99.90;;;;;;5056305;28;19925;-68
2021/06/20 02:25:49;;;;;;;;;;;22.00;99.90;;;;;;5039861;28;19925;-67
2021/06/20 02:28:38;;;;;;;;;;;22.00;99.90;;;;;;5056387;28;19925;-67
2021/06/20 02:31:29;;;;;;;;;;;21.90;99.90;;;;;;5050430;28;19971;-67
2021/06/20 02:34:17;;;;;;;;;;;22.00;99.90;;;;;;5059636;28;19940;-68
2021/06/20 02:37:06;;;;;;;;;;;22.00;99.90;;;;;;5050183;28;19915;-68
2021/06/20 02:39:55;;;;;;;;;;;22.00;99.90;;;;;;5059779;28;19925;-68
2021/06/20 02:42:45;;;;;;;;;;;22.00;99.90;;;;;;5072466;28;19925;-68
2021/06/20 02:45:39;;;;;;;;;;;21.90;99.90;;;;;;5055226;28;20472;-67
2021/06/20 02:48:29;;;;;;;;;;;21.80;99.90;;;;;;5056419;28;19931;-68
2021/06/20 02:51:18;;;;;;;;;;;21.80;99.90;;;;;;5052120;28;19925;-66
2021/06/20 02:54:07;;;;;;;;;;;21.90;99.90;;;;;;5052795;28;20251;-67
2021/06/20 02:56:56;;;;;;;;;;;21.90;99.90;;;;;;5049723;28;19925;-68
2021/06/20 02:59:44;;;;;;;;;;;22.20;99.90;;;;;;5029730;28;20531;-67
2021/06/20 03:02:34;;;;;;;;;;;22.30;99.90;;;;;;5051724;28;19972;-68
2021/06/20 03:05:23;;;;;;;;;;;22.40;99.90;;;;;;5053378;28;19925;-67
2021/06/20 03:08:12;;;;;;;;;;;22.50;99.90;;;;;;5051081;28;19925;-68
2021/06/20 03:11:01;;;;;;;;;;;22.40;99.90;;;;;;5040352;28;19925;-66
2021/06/20 03:13:50;;;;;;;;;;;22.40;99.90;;;;;;5051518;28;20426;-66
2021/06/20 03:16:38;;;;;;;;;;;22.40;99.90;;;;;;5044157;28;19987;-69
2021/06/20 03:19:27;;;;;;;;;;;22.50;99.90;;;;;;5037355;28;20258;-67
2021/06/20 03:22:18;;;;;;;;;;;22.30;99.90;;;;;;5051704;28;19924;-67
2021/06/20 03:25:07;;;;;;;;;;;22.20;99.90;;;;;;5039234;28;19925;-67
2021/06/20 03:27:56;;;;;;;;;;;22.30;99.90;;;;;;5050218;28;19925;-67
2021/06/20 03:30:45;;;;;;;;;;;22.20;99.90;;;;;;5043646;28;19933;-67
2021/06/20 03:33:34;;;;;;;;;;;22.10;99.90;;;;;;5051463;28;19928;-67
2021/06/20 03:36:22;;;;;;;;;;;22.00;99.90;;;;;;5038855;28;20315;-67
2021/06/20 03:39:18;;;;;;;;;;;21.90;99.90;;;;;;5051052;28;19932;-67
2021/06/20 03:42:07;;;;;;;;;;;22.00;99.90;;;;;;5050798;28;19931;-67
2021/06/20 03:44:56;;;;;;;;;;;22.10;99.90;;;;;;5050973;28;20292;-69
2021/06/20 03:47:46;;;;;;;;;;;22.20;99.90;;;;;;5051540;28;19968;-67
2021/06/20 03:50:35;;;;;;;;;;;22.20;99.90;;;;;;5048675;28;19932;-67
2021/06/20 03:53:24;;;;;;;;;;;22.40;99.90;;;;;;5052120;28;20320;-68
2021/06/20 03:56:14;;;;;;;;;;;22.30;99.90;;;;;;5041000;28;19953;-67
2021/06/20 03:59:04;;;;;;;;;;;22.50;99.90;;;;;;5051791;28;19935;-67
2021/06/20 04:01:53;;;;;;;;;;;22.80;99.90;;;;;;5045852;28;19925;-66
2021/06/20 04:04:42;;;;;;;;;;;22.90;99.90;;;;;;5048942;28;19929;-67
2021/06/20 04:07:30;;;;;;;;;;;23.10;99.90;;;;;;5038803;28;19925;-67
2021/06/20 04:10:19;;;;;;;;;;;23.10;99.90;;;;;;5032960;28;20016;-67
2021/06/20 04:13:10;;;;;;;;;;;23.20;99.90;;;;;;5049816;28;19933;-66
2021/06/20 04:15:59;;;;;;;;;;;23.00;99.90;;;;;;5043153;28;19925;-66
2021/06/20 04:18:47;;;;;;;;;;;22.80;99.90;;;;;;5052627;28;20020;-66
2021/06/20 04:21:36;;;;;;;;;;;22.70;99.90;;;;;;5049778;28;20281;-70
2021/06/20 04:24:24;;;;;;;;;;;22.80;99.90;;;;;;5035869;28;19948;-66
2021/06/20 04:27:13;;;;;;;;;;;22.80;99.90;;;;;;4991629;28;20492;-66
2021/06/20 04:30:04;;;;;;;;;;;22.70;99.90;;;;;;5033436;28;19935;-67
2021/06/20 04:32:53;;;;;;;;;;;22.70;99.90;;;;;;5034827;28;19929;-67
2021/06/20 04:35:42;;;;;;;;;;;22.70;99.90;;;;;;5047688;28;20457;-65
2021/06/20 04:38:30;;;;;;;;;;;22.90;99.90;;;;;;5046652;28;19925;-65
2021/06/20 04:41:21;;;;;;;;;;;22.90;99.90;;;;;;5048901;28;19931;-66
2021/06/20 04:47:14;;;;;;;;;;;23.00;99.90;;;;;;5046817;28;19967;-65
2021/06/20 04:50:04;;;;;;;;;;;23.00;99.90;;;;;;5054248;28;20303;-65
2021/06/20 04:52:53;;;;;;;;;;;23.10;99.90;;;;;;5050265;28;19933;-65
2021/06/20 04:55:41;;;;;;;;;;;23.20;99.90;;;;;;5042814;28;19925;-65
2021/06/20 04:58:55;;;;;;;;;;;23.10;99.90;;;;;;5056344;28;19931;-65
2021/06/20 05:01:43;;;;;;;;;;;23.20;99.90;;;;;;5043902;28;19929;-66
2021/06/20 05:04:34;;;;;;;;;;;23.30;99.90;;;;;;5070833;28;19947;-67
2021/06/20 05:07:23;;;;;;;;;;;23.30;99.90;;;;;;5059746;28;19929;-66
2021/06/20 05:10:12;;;;;;;;;;;23.30;99.90;;;;;;5064468;28;19924;-67
2021/06/20 05:13:01;;;;;;;;;;;23.30;99.90;;;;;;5045627;28;19939;-66
2021/06/20 05:15:50;;;;;;;;;;;23.30;99.90;;;;;;5036211;28;19984;-65
2021/06/20 05:18:38;;;;;;;;;;;23.20;99.90;;;;;;5056400;28;19929;-66
2021/06/20 05:21:34;;;;;;;;;;;23.30;99.90;;;;;;5030714;28;19925;-65
2021/06/20 05:24:23;;;;;;;;;;;23.30;99.90;;;;;;5055878;28;19929;-66
2021/06/20 05:27:11;;;;;;;;;;;23.30;99.90;;;;;;5059282;28;19925;-65
2021/06/20 05:30:00;;;;;;;;;;;23.30;99.90;;;;;;5057221;28;19925;-65
2021/06/20 05:32:50;;;;;;;;;;;23.60;99.90;;;;;;5057734;28;20479;-65
2021/06/20 05:35:38;;;;;;;;;;;23.60;99.90;;;;;;5048138;28;20016;-65
2021/06/20 05:38:32;;;;;;;;;;;23.60;99.90;;;;;;5052658;28;19928;-65
2021/06/20 05:41:21;;;;;;;;;;;23.70;99.90;;;;;;5044108;28;19925;-66
2021/06/20 05:44:10;;;;;;;;;;;23.80;99.90;;;;;;5055677;28;19924;-65
2021/06/20 05:47:00;;;;;;;;;;;23.90;99.90;;;;;;5049939;28;19925;-65
2021/06/20 05:49:49;;;;;;;;;;;24.00;99.90;;;;;;5035382;28;19929;-65
2021/06/20 05:52:38;;;;;;;;;;;24.10;99.90;;;;;;5040614;28;19925;-66
2021/06/20 05:55:54;;;;;;;;;;;24.20;99.90;;;;;;5054796;28;19962;-65
2021/06/20 05:58:43;;;;;;;;;;;24.20;99.90;;;;;;5056666;28;19925;-66
2021/06/20 06:01:35;;;;;;;;;;;24.40;99.90;;;;;;5049371;28;20021;-66
2021/06/20 06:04:24;;;;;;;;;;;24.40;99.90;;;;;;5055061;28;19937;-66
2021/06/20 06:07:13;;;;;;;;;;;24.70;99.90;;;;;;5054365;28;20361;-65
2021/06/20 06:10:02;;;;;;;;;;;24.60;99.90;;;;;;5053887;28;19925;-66
2021/06/20 06:12:51;;;;;;;;;;;24.40;99.90;;;;;;5045095;28;19928;-67
2021/06/20 06:15:41;;;;;;;;;;;24.20;99.90;;;;;;5046337;28;19925;-66
2021/06/20 06:18:29;;;;;;;;;;;23.70;99.90;;;;;;5053945;28;19931;-65
2021/06/20 06:21:43;;;;;;;;;;;23.40;99.90;;;;;;5053811;28;19925;-66
2021/06/20 06:24:31;;;;;;;;;;;22.70;99.90;;;;;;5039128;28;19929;-66
2021/06/20 06:27:20;;;;;;;;;;;22.30;99.90;;;;;;5044654;28;20892;-67
2021/06/20 06:30:10;;;;;;;;;;;22.00;99.90;;;;;;5038332;28;19937;-66
2021/06/20 06:33:06;;;;;;;;;;;21.70;99.90;;;;;;5049495;28;19931;-66
2021/06/20 06:35:56;;;;;;;;;;;21.40;99.90;;;;;;5033805;28;19968;-66
2021/06/20 06:38:44;;;;;;;;;;;21.20;99.90;;;;;;5048196;28;19928;-66
2021/06/20 06:41:36;;;;;;;;;;;21.20;99.90;;;;;;5055956;28;19941;-67
2021/06/20 06:44:26;;;;;;;;;;;21.40;99.90;;;;;;5065900;28;19933;-66
2021/06/20 06:47:14;;;;;;;;;;;21.60;99.90;;;;;;5039234;28;19929;-66
2021/06/20 06:50:06;;;;;;;;;;;21.50;99.90;;;;;;5049539;28;19964;-66
2021/06/20 06:52:55;;;;;;;;;;;21.50;99.90;;;;;;5043461;28;19925;-67
2021/06/20 06:55:43;;;;;;;;;;;21.60;99.90;;;;;;5053517;28;20416;-66
2021/06/20 06:58:57;;;;;;;;;;;21.70;99.90;;;;;;5053342;28;19925;-67
2021/06/20 07:01:49;;;;;;;;;;;21.70;99.90;;;;;;5046996;28;19925;-66
2021/06/20 07:04:37;;;;;;;;;;;21.80;99.90;;;;;;5048512;28;19935;-65
2021/06/20 07:07:28;;;;;;;;;;;22.00;99.90;;;;;;5053645;28;19947;-66
2021/06/20 07:10:16;;;;;;;;;;;22.20;99.90;;;;;;5064994;28;20277;-66
2021/06/20 07:13:05;;;;;;;;;;;22.30;99.90;;;;;;5052811;28;19935;-66
2021/06/20 07:15:54;;;;;;;;;;;21.90;99.90;;;;;;5033944;28;20020;-66
2021/06/20 07:18:44;;;;;;;;;;;21.60;99.90;;;;;;5035569;28;20035;-65
2021/06/20 07:21:37;;;;;;;;;;;21.60;99.90;;;;;;5048427;28;19924;-66
2021/06/20 07:24:27;;;;;;;;;;;21.60;99.90;;;;;;5035823;28;19925;-68
2021/06/20 07:27:16;;;;;;;;;;;21.60;99.90;;;;;;5049216;28;19925;-68
2021/06/20 07:30:05;;;;;;;;;;;21.50;99.90;;;;;;5048965;28;19928;-65
2021/06/20 07:32:54;;;;;;;;;;;21.50;99.90;;;;;;5039113;28;19925;-65
2021/06/20 07:35:42;;;;;;;;;;;21.50;99.90;;;;;;5049649;28;20047;-65
2021/06/20 07:38:31;;;;;;;;;;;21.50;99.90;;;;;;5047622;28;20387;-65
2021/06/20 07:41:21;;;;;;;;;;;21.60;99.90;;;;;;5044525;28;19925;-66
2021/06/20 07:44:10;;;;;;;;;;;21.70;99.90;;;;;;5028727;28;19932;-65
2021/06/20 07:46:58;;;;;;;;;;;21.70;99.90;;;;;;5019322;28;19947;-66
2021/06/20 07:49:47;;;;;;;;;;;21.70;99.90;;;;;;5034217;28;19925;-66
2021/06/20 07:52:37;;;;;;;;;;;21.60;99.90;;;;;;5030504;28;19925;-65
2021/06/20 07:55:25;;;;;;;;;;;21.80;99.90;;;;;;5032428;28;19980;-65
2021/06/20 07:58:15;;;;;;;;;;;22.00;99.90;;;;;;5025821;28;19933;-65
2021/06/20 08:01:04;;;;;;;;;;;22.10;99.90;;;;;;5027454;28;20402;-65
2021/06/20 08:03:53;;;;;;;;;;;22.20;99.90;;;;;;5030858;28;19935;-65
2021/06/20 08:06:44;;;;;;;;;;;22.10;99.90;;;;;;5031367;28;19929;-68
2021/06/20 08:09:32;;;;;;;;;;;22.20;99.90;;;;;;5032214;28;19929;-65
2021/06/20 08:12:21;;;;;;;;;;;22.40;99.90;;;;;;5032224;28;19925;-65
2021/06/20 08:15:12;;;;;;;;;;;22.70;99.90;;;;;;5023033;28;19975;-66
2021/06/20 08:18:00;;;;;;;;;;;23.10;99.90;;;;;;5029906;28;20428;-66
2021/06/20 08:20:51;;;;;;;;;;;23.30;99.90;;;;;;5047018;28;19925;-66
2021/06/20 08:23:41;;;;;;;;;;;23.40;99.90;;;;;;5038803;28;19932;-66
2021/06/20 08:26:30;;;;;;;;;;;23.50;99.90;;;;;;5015143;28;20364;-66
2021/06/20 08:29:18;;;;;;;;;;;23.50;99.90;;;;;;5022438;28;20026;-66
2021/06/20 08:32:09;;;;;;;;;;;23.20;99.90;;;;;;5020404;28;19931;-65
2021/06/20 08:34:59;;;;;;;;;;;22.60;99.90;;;;;;5032089;28;19925;-66
2021/06/20 08:37:48;;;;;;;;;;;22.50;99.90;;;;;;5030130;28;19979;-66
2021/06/20 08:40:37;;;;;;;;;;;22.50;99.90;;;;;;5030492;28;20012;-65
2021/06/20 08:43:25;;;;;;;;;;;22.60;99.90;;;;;;5041251;28;19929;-66
2021/06/20 08:49:29;;;;;;;;;;;24.60;99.90;;;;;;5044988;28;20660;-66
2021/06/20 08:52:17;;;;;;;;;;;26.20;99.90;;;;;;5032673;28;19925;-66
2021/06/20 08:55:09;;;;;;;;;;;26.90;99.90;;;;;;5043068;28;19925;-66
2021/06/20 08:58:03;;;;;;;;;;;28.30;99.90;;;;;;5052689;28;19924;-65
2021/06/20 09:01:41;;;;;;;;;;;29.00;99.90;;;;;;5043514;28;20346;-64
2021/06/20 09:04:34;;;;;;;;;;;27.00;99.90;;;;;;5053869;28;19931;-67
2021/06/20 09:07:29;;;;;;;;;;;25.90;99.90;;;;;;5031814;28;19979;-66
2021/06/20 09:10:19;;;;;;;;;;;25.20;99.90;;;;;;5046782;28;19924;-66
2021/06/20 09:13:07;;;;;;;;;;;24.80;99.90;;;;;;5032906;28;20265;-66
2021/06/20 09:16:00;;;;;;;;;;;24.60;99.90;;;;;;5045758;28;19925;-65
2021/06/20 09:18:49;;;;;;;;;;;24.50;99.90;;;;;;5047701;28;19925;-66
2021/06/20 09:24:58;;;;;;;;;;;24.30;99.90;;;;;;5047911;28;19932;-66
2021/06/20 09:27:53;;;;;;;;;;;24.10;99.90;;;;;;5053189;28;20066;-66
2021/06/20 09:30:47;;;;;;;;;;;24.00;99.90;;;;;;5058267;28;19932;-65
2021/06/20 09:33:36;;;;;;;;;;;23.90;99.90;;;;;;5046855;28;19929;-65
2021/06/20 09:36:28;;;;;;;;;;;23.70;99.90;;;;;;5032052;28;19961;-65
2021/06/20 09:39:21;;;;;;;;;;;23.70;99.90;;;;;;5051786;28;20295;-65
2021/06/20 09:42:10;;;;;;;;;;;23.80;99.90;;;;;;5050276;28;20031;-64
2021/06/20 09:45:00;;;;;;;;;;;23.80;99.90;;;;;;5048272;28;19925;-65
2021/06/20 09:47:49;;;;;;;;;;;23.80;99.90;;;;;;5059704;28;19929;-66
2021/06/20 09:50:38;;;;;;;;;;;23.80;99.90;;;;;;5051833;28;19932;-66
2021/06/20 09:53:32;;;;;;;;;;;23.90;99.90;;;;;;5048175;28;20030;-66
2021/06/20 09:56:24;;;;;;;;;;;24.20;99.90;;;;;;5051334;28;19932;-67
2021/06/20 09:59:13;;;;;;;;;;;24.20;99.90;;;;;;5049758;28;19925;-68
2021/06/20 10:02:09;;;;;;;;;;;24.10;99.90;;;;;;5027738;28;19955;-68
2021/06/20 10:04:58;;;;;;;;;;;24.30;99.90;;;;;;5032641;28;19929;-67
2021/06/20 10:07:46;;;;;;;;;;;24.50;99.90;;;;;;5037683;28;19925;-66
2021/06/20 10:13:49;;;;;;;;;;;24.40;99.90;;;;;;5040021;28;20373;-66
2021/06/20 10:16:39;;;;;;;;;;;23.90;99.90;;;;;;5040948;28;20384;-65
2021/06/20 10:19:30;;;;;;;;;;;23.80;99.90;;;;;;5044168;28;19983;-66
2021/06/20 10:22:19;;;;;;;;;;;23.50;99.90;;;;;;5032980;28;20011;-66
2021/06/20 10:25:09;;;;;;;;;;;23.10;99.90;;;;;;5049155;28;19978;-66
2021/06/20 10:28:06;;;;;;;;;;;22.90;99.90;;;;;;5055828;28;19964;-65
2021/06/20 10:31:05;;;;;;;;;;;22.50;99.90;;;;;;5049809;28;19952;-66
2021/06/20 10:33:53;;;;;;;;;;;22.30;99.90;;;;;;5040296;28;19935;-65
2021/06/20 10:36:44;;;;;;;;;;;22.00;99.90;;;;;;5057316;28;19929;-65
2021/06/20 10:39:33;;;;;;;;;;;21.90;99.90;;;;;;5066454;28;19924;-66
2021/06/20 10:42:33;;;;;;;;;;;21.80;99.90;;;;;;5063160;28;19944;-65
2021/06/20 10:45:30;;;;;;;;;;;21.80;99.90;;;;;;5032683;28;19995;-65
2021/06/20 10:48:21;;;;;;;;;;;21.70;99.90;;;;;;5053210;28;19983;-65
2021/06/20 10:51:16;;;;;;;;;;;21.60;99.90;;;;;;5054990;28;19925;-65
2021/06/20 10:54:06;;;;;;;;;;;21.40;99.90;;;;;;5049659;28;20534;-66
2021/06/20 10:57:07;;;;;;;;;;;21.40;99.90;;;;;;5054979;28;19925;-66
2021/06/20 10:59:57;;;;;;;;;;;21.20;99.90;;;;;;5055600;28;19936;-65
2021/06/20 11:02:46;;;;;;;;;;;20.70;99.90;;;;;;5055850;28;20375;-65
2021/06/20 11:05:45;;;;;;;;;;;20.40;99.90;;;;;;5049365;28;19986;-64
2021/06/20 11:08:34;;;;;;;;;;;20.50;99.90;;;;;;5053663;28;19925;-65
2021/06/20 11:11:25;;;;;;;;;;;20.50;99.90;;;;;;5055921;28;19928;-65
2021/06/20 11:14:13;;;;;;;;;;;20.50;99.90;;;;;;5053835;28;19933;-67
2021/06/20 11:17:08;;;;;;;;;;;20.50;99.90;;;;;;5041821;28;19924;-64
2021/06/20 11:19:56;;;;;;;;;;;20.50;99.90;;;;;;5051827;28;19956;-65
2021/06/20 11:22:46;;;;;;;;;;;20.50;99.90;;;;;;5051283;28;19928;-64
2021/06/20 11:25:35;;;;;;;;;;;20.60;99.90;;;;;;5045542;28;19925;-64
2021/06/20 11:28:24;;;;;;;;;;;20.60;99.90;;;;;;5050248;28;19925;-65
2021/06/20 11:31:13;;;;;;;;;;;20.70;99.90;;;;;;5040470;28;20071;-66
2021/06/20 11:34:01;;;;;;;;;;;20.80;99.90;;;;;;5047809;28;19921;-65
2021/06/20 11:36:50;;;;;;;;;;;21.10;99.90;;;;;;5044970;28;19932;-66
2021/06/20 11:39:42;;;;;;;;;;;21.20;99.90;;;;;;5051700;28;19921;-65
2021/06/20 11:42:32;;;;;;;;;;;21.30;99.90;;;;;;5044968;28;19931;-66
2021/06/20 11:45:21;;;;;;;;;;;21.40;99.90;;;;;;5048301;28;19944;-65
2021/06/20 11:48:11;;;;;;;;;;;21.30;99.90;;;;;;5042508;28;19979;-65
2021/06/20 11:51:00;;;;;;;;;;;21.50;99.90;;;;;;5048097;28;19925;-66
2021/06/20 11:53:49;;;;;;;;;;;21.70;99.90;;;;;;5040161;28;19921;-65
2021/06/20 11:56:40;;;;;;;;;;;21.80;99.90;;;;;;5045722;28;19925;-65
2021/06/20 11:59:33;;;;;;;;;;;21.70;99.90;;;;;;5047973;28;19935;-65
2021/06/20 12:02:21;;;;;;;;;;;21.90;99.90;;;;;;5043676;28;19975;-65
2021/06/20 12:05:14;;;;;;;;;;;22.30;99.90;;;;;;5048641;28;19921;-66
2021/06/20 12:08:04;;;;;;;;;;;22.40;99.90;;;;;;5055528;28;19921;-66
2021/06/20 12:10:53;;;;;;;;;;;22.50;99.90;;;;;;5041276;28;19932;-65
2021/06/20 12:13:45;;;;;;;;;;;22.60;99.90;;;;;;5052499;28;19928;-66
2021/06/20 12:16:45;;;;;;;;;;;22.60;99.90;;;;;;5059030;28;19939;-66
2021/06/20 12:19:35;;;;;;;;;;;22.70;99.90;;;;;;5039685;28;20375;-66
2021/06/20 12:22:29;;;;;;;;;;;22.80;99.90;;;;;;5053754;28;19920;-66
2021/06/20 12:25:18;;;;;;;;;;;22.90;99.90;;;;;;5033353;28;20195;-65
2021/06/20 12:28:10;;;;;;;;;;;23.00;99.90;;;;;;5035729;28;19925;-65
2021/06/20 12:30:59;;;;;;;;;;;23.10;99.90;;;;;;5045135;28;20010;-66
2021/06/20 12:33:59;;;;;;;;;;;23.30;99.90;;;;;;5020849;28;19921;-66
2021/06/20 12:36:56;;;;;;;;;;;23.30;99.90;;;;;;5044454;28;19925;-65
2021/06/20 12:40:12;;;;;;;;;;;23.30;99.90;;;;;;5048846;28;20011;-65
2021/06/20 12:43:01;;;;;;;;;;;23.30;99.90;;;;;;5051988;28;19920;-64
2021/06/20 12:46:17;;;;;;;;;;;23.30;99.90;;;;;;5038970;28;19932;-65
2021/06/20 12:49:30;;;;;;;;;;;22.90;99.90;;;;;;5046683;28;19931;-66
2021/06/20 12:52:19;;;;;;;;;;;23.00;99.90;;;;;;5036171;28;20292;-65
2021/06/20 12:55:15;;;;;;;;;;;22.80;99.90;;;;;;5043193;28;19931;-66
2021/06/20 12:58:29;;;;;;;;;;;22.70;99.90;;;;;;5047148;28;20313;-66
2021/06/20 13:01:52;;;;;;;;;;;22.80;99.90;;;;;;5040847;28;19921;-66
2021/06/20 13:04:47;;;;;;;;;;;22.80;99.90;;;;;;5049022;28;19967;-66
2021/06/20 13:07:39;;;;;;;;;;;22.90;99.90;;;;;;5051366;28;19929;-65
2021/06/20 13:10:28;;;;;;;;;;;23.00;99.90;;;;;;5044326;28;19925;-65
2021/06/20 13:13:16;;;;;;;;;;;23.20;99.90;;;;;;5050774;28;19952;-66
2021/06/20 13:16:05;;;;;;;;;;;23.10;99.90;;;;;;5043635;28;20006;-66
2021/06/20 13:18:55;;;;;;;;;;;23.20;99.90;;;;;;5049265;28;20315;-66
2021/06/20 13:21:45;;;;;;;;;;;23.40;99.90;;;;;;5051078;28;19983;-66
2021/06/20 13:24:34;;;;;;;;;;;23.50;99.90;;;;;;5040965;28;19928;-66
2021/06/20 13:27:23;;;;;;;;;;;23.40;99.90;;;;;;5049404;28;20006;-66
2021/06/20 13:30:13;;;;;;;;;;;23.30;99.90;;;;;;5043569;28;19921;-68
2021/06/20 13:33:02;;;;;;;;;;;23.50;99.90;;;;;;5048279;28;20379;-66
2021/06/20 13:35:52;;;;;;;;;;;23.70;99.90;;;;;;5040132;28;19921;-66
2021/06/20 13:38:41;;;;;;;;;;;24.00;99.90;;;;;;5042882;28;19920;-68
2021/06/20 13:41:54;;;;;;;;;;;24.30;99.90;;;;;;5049409;28;19975;-66
2021/06/20 13:44:44;;;;;;;;;;;24.20;99.90;;;;;;5051317;28;20004;-67
2021/06/20 13:47:33;;;;;;;;;;;23.90;99.90;;;;;;5047347;28;20455;-66
2021/06/20 13:50:22;;;;;;;;;;;23.80;99.90;;;;;;5036601;28;19950;-66
2021/06/20 13:53:12;;;;;;;;;;;23.70;99.90;;;;;;5043867;28;19928;-67
2021/06/20 13:56:01;;;;;;;;;;;23.60;99.90;;;;;;5037678;28;19932;-66
2021/06/20 13:58:50;;;;;;;;;;;23.60;99.90;;;;;;5013560;28;19920;-66
2021/06/20 14:01:38;;;;;;;;;;;23.70;99.90;;;;;;5024819;28;19943;-66
2021/06/20 14:04:27;;;;;;;;;;;23.70;99.90;;;;;;5049287;28;19929;-65
2021/06/20 14:07:16;;;;;;;;;;;23.90;99.90;;;;;;5051046;28;19920;-65
2021/06/20 14:10:38;;;;;;;;;;;23.90;99.90;;;;;;5054450;28;19920;-65
2021/06/20 14:13:33;;;;;;;;;;;24.10;99.90;;;;;;5036533;28;20372;-65
2021/06/20 14:16:22;;;;;;;;;;;24.20;99.90;;;;;;5034142;28;19920;-66
2021/06/20 14:19:10;;;;;;;;;;;24.50;99.90;;;;;;5052444;28;20325;-65
2021/06/20 14:21:59;;;;;;;;;;;24.50;99.90;;;;;;5049333;28;19960;-66
2021/06/20 14:24:48;;;;;;;;;;;24.80;99.90;;;;;;5053295;28;19921;-66
2021/06/20 14:27:37;;;;;;;;;;;24.60;99.90;;;;;;5055469;28;20117;-66
2021/06/20 14:30:29;;;;;;;;;;;24.90;99.90;;;;;;5049214;28;20391;-67
2021/06/20 14:33:18;;;;;;;;;;;24.90;99.90;;;;;;5051918;28;20348;-67
2021/06/20 14:36:07;;;;;;;;;;;25.00;99.90;;;;;;5041702;28;20010;-66
2021/06/20 14:38:56;;;;;;;;;;;25.10;99.90;;;;;;5054903;28;19947;-66
2021/06/20 14:41:45;;;;;;;;;;;25.40;99.90;;;;;;5061294;28;20015;-67
2021/06/20 14:44:34;;;;;;;;;;;25.40;99.90;;;;;;5051654;28;20368;-66
2021/06/20 14:47:25;;;;;;;;;;;25.30;99.90;;;;;;5048973;28;19925;-67
2021/06/20 14:50:15;;;;;;;;;;;25.20;99.90;;;;;;5054384;28;20268;-66
2021/06/20 14:53:05;;;;;;;;;;;25.10;99.90;;;;;;5054450;28;19943;-66
2021/06/20 14:55:54;;;;;;;;;;;25.30;99.90;;;;;;5038363;28;20423;-66
2021/06/20 14:58:43;;;;;;;;;;;25.30;99.90;;;;;;5049483;28;20012;-66
2021/06/20 15:01:32;;;;;;;;;;;25.10;99.90;;;;;;5036240;28;19921;-65
2021/06/20 15:04:23;;;;;;;;;;;25.00;99.90;;;;;;5054101;28;19921;-65
2021/06/20 15:07:12;;;;;;;;;;;24.90;99.90;;;;;;5052406;28;19928;-66
2021/06/20 15:10:02;;;;;;;;;;;24.70;99.90;;;;;;5047502;28;20369;-65
2021/06/20 15:12:50;;;;;;;;;;;24.60;99.90;;;;;;5051110;28;20009;-65
2021/06/20 15:15:39;;;;;;;;;;;24.50;99.90;;;;;;5030365;28;19921;-66
2021/06/20 15:18:28;;;;;;;;;;;24.60;99.90;;;;;;5042120;28;20398;-65
2021/06/20 15:21:17;;;;;;;;;;;24.80;99.90;;;;;;5049048;28;20394;-65
2021/06/20 15:24:07;;;;;;;;;;;24.90;99.90;;;;;;5053003;28;19927;-65
2021/06/20 15:26:55;;;;;;;;;;;25.10;99.90;;;;;;5049852;28;19935;-66
2021/06/20 15:29:45;;;;;;;;;;;25.20;99.90;;;;;;5051153;28;19935;-64
2021/06/20 15:33:04;;;;;;;;;;;25.40;99.90;;;;;;5049034;28;19932;-65
2021/06/20 15:35:54;;;;;;;;;;;25.30;99.90;;;;;;5006328;28;19959;-64
2021/06/20 15:38:45;;;;;;;;;;;25.40;99.90;;;;;;5053314;28;19921;-67
2021/06/20 15:41:37;;;;;;;;;;;25.40;99.90;;;;;;5052740;28;19928;-65
2021/06/20 15:44:26;;;;;;;;;;;25.50;99.90;;;;;;5051610;28;19920;-64
2021/06/20 15:47:17;;;;;;;;;;;25.50;99.90;;;;;;5046593;28;19956;-65
2021/06/20 15:50:07;;;;;;;;;;;25.40;99.90;;;;;;5053820;28;20217;-65
2021/06/20 15:52:56;;;;;;;;;;;25.50;99.90;;;;;;5047874;28;19985;-66
2021/06/20 15:55:47;;;;;;;;;;;25.60;99.90;;;;;;5049454;28;20025;-66
2021/06/20 15:58:42;;;;;;;;;;;25.60;99.90;;;;;;5050591;28;19971;-65
2021/06/20 16:01:31;;;;;;;;;;;25.70;99.90;;;;;;5023576;28;20679;-66
2021/06/20 16:04:20;;;;;;;;;;;25.80;99.90;;;;;;5031782;28;20023;-66
2021/06/20 16:07:09;;;;;;;;;;;25.70;99.90;;;;;;5036453;28;19921;-65
2021/06/20 16:09:59;;;;;;;;;;;25.70;99.90;;;;;;5033700;28;19963;-65
2021/06/20 16:12:50;;;;;;;;;;;25.70;99.90;;;;;;5036588;28;20004;-65
2021/06/20 16:15:40;;;;;;;;;;;25.80;99.90;;;;;;5015290;28;19924;-65
2021/06/20 16:18:29;;;;;;;;;;;25.80;99.90;;;;;;5048538;28;19929;-66
2021/06/20 16:21:18;;;;;;;;;;;25.70;99.90;;;;;;5060324;28;20016;-66
2021/06/20 16:24:07;;;;;;;;;;;25.70;99.90;;;;;;5044175;28;19924;-65
2021/06/20 16:26:56;;;;;;;;;;;25.70;99.90;;;;;;5031558;28;19921;-67
2021/06/20 16:29:48;;;;;;;;;;;25.70;99.90;;;;;;5053099;28;20013;-65
2021/06/20 16:32:37;;;;;;;;;;;25.80;99.90;;;;;;5049189;28;20377;-65
2021/06/20 16:35:26;;;;;;;;;;;25.90;99.90;;;;;;5054373;28;20276;-65
2021/06/20 16:38:14;;;;;;;;;;;25.90;99.90;;;;;;5050924;28;20015;-65
2021/06/20 16:41:03;;;;;;;;;;;25.90;99.90;;;;;;5052620;28;20064;-68
2021/06/20 16:43:52;;;;;;;;;;;25.90;99.90;;;;;;5030827;28;19936;-66
2021/06/20 16:46:42;;;;;;;;;;;25.80;99.90;;;;;;5016962;28;20032;-66